Terminal Aerodrome Forecast
Issued by NWS

Home | Current Version | Previous Version | Graphics & Text | Print | Product List | Glossary On
Versions: 1 2 3 4 5 6 7 8 9 10 11 12 13 14 15 16 17 18
000
FTUS43 KGRB 141000 AAA
TAFAUW
TAF AMD
KAUW 141013Z 1410/1506 34013G23KT 1 1/2SM -SN BR OVC009
     FM141300 33016G26KT 6SM -SN SCT007 OVC015
     FM141700 32015G25KT P6SM BKN030
     FM142300 32009KT P6SM SCT045=

USA.gov is the U.S. government's official web portal to all federal, state and local government web resources and services.